createdAt,value
2019-04-20T00:01:32.672Z,5.80
2019-04-20T00:06:49.425Z,4.93
2019-04-20T00:12:07.123Z,6.03
2019-04-20T00:17:11.642Z,6.17
2019-04-20T00:22:39.302Z,4.70
2019-04-20T00:27:59.626Z,5.70
2019-04-20T00:33:07.329Z,4.60
2019-04-20T00:38:07.842Z,6.10
2019-04-20T00:43:22.119Z,5.73
2019-04-20T00:48:33.756Z,5.90
2019-04-20T00:53:39.268Z,5.43
2019-04-20T00:58:52.000Z,5.97
2019-04-20T01:04:07.139Z,6.20
2019-04-20T01:08:57.547Z,5.80
2019-04-20T01:14:07.454Z,5.57
2019-04-20T01:19:10.353Z,5.80
2019-04-20T01:24:30.902Z,5.50
2019-04-20T01:29:32.408Z,6.03
2019-04-20T01:35:03.980Z,5.63
2019-04-20T01:39:59.259Z,5.80
2019-04-20T01:45:05.686Z,6.13
2019-04-20T01:50:18.442Z,6.10
2019-04-20T01:55:40.100Z,6.60
2019-04-20T02:00:49.146Z,6.57
2019-04-20T02:05:59.124Z,6.37
2019-04-20T02:11:00.288Z,6.50
2019-04-20T02:16:11.448Z,6.40
2019-04-20T02:21:26.027Z,6.67
2019-04-20T02:26:12.908Z,6.70
2019-04-20T02:32:12.153Z,7.27
2019-04-20T02:37:07.780Z,6.90
2019-04-20T02:42:08.828Z,6.97
2019-04-20T02:47:14.155Z,6.47
2019-04-20T02:52:21.110Z,7.00
2019-04-20T02:57:17.815Z,6.80
2019-04-20T03:02:13.002Z,6.73
2019-04-20T03:07:15.644Z,7.00
2019-04-20T03:12:29.127Z,6.93
2019-04-20T03:17:33.891Z,6.33
2019-04-20T03:23:01.046Z,6.60
2019-04-20T03:27:35.551Z,6.43
2019-04-20T03:38:00.121Z,6.23
2019-04-20T03:42:39.909Z,6.67
2019-04-20T03:47:58.243Z,6.70
2019-04-20T03:53:12.855Z,6.40
2019-04-20T03:58:15.331Z,6.60
2019-04-20T04:03:47.292Z,7.13
2019-04-20T04:08:33.880Z,7.07
2019-04-20T04:13:29.133Z,7.30
2019-04-20T04:18:38.680Z,7.13
2019-04-20T04:23:56.103Z,7.27
2019-04-20T04:29:08.319Z,7.73
2019-04-20T04:34:07.880Z,7.47
2019-04-20T04:39:15.345Z,7.37
2019-04-20T04:44:17.759Z,7.57
2019-04-20T04:49:17.856Z,7.93
2019-04-20T04:54:21.610Z,7.07
2019-04-20T04:59:17.060Z,7.90
2019-04-20T05:04:48.576Z,7.33
2019-04-20T05:09:27.724Z,7.53
2019-04-20T05:14:42.332Z,7.47
2019-04-20T05:19:52.958Z,6.97
2019-04-20T05:25:07.123Z,8.03
2019-04-20T05:29:48.819Z,7.53
2019-04-20T05:35:19.691Z,7.57
2019-04-20T05:40:22.303Z,8.17
2019-04-20T05:45:20.561Z,7.70
2019-04-20T05:50:32.842Z,7.70
2019-04-20T05:55:37.439Z,7.43
2019-04-20T06:00:41.053Z,7.40
2019-04-20T06:05:56.808Z,7.87
2019-04-20T06:10:52.175Z,8.03
2019-04-20T06:16:00.647Z,7.80
2019-04-20T06:21:13.482Z,7.77
2019-04-20T06:31:30.999Z,7.60
2019-04-20T06:36:33.888Z,7.80
2019-04-20T06:41:53.895Z,8.40
2019-04-20T06:46:45.601Z,7.50
2019-04-20T06:51:59.141Z,7.03
2019-04-20T06:56:54.045Z,7.97
2019-04-20T07:02:05.208Z,7.83
2019-04-20T07:07:11.399Z,7.63
2019-04-20T07:12:09.491Z,7.53
2019-04-20T07:17:35.005Z,7.90
2019-04-20T07:27:36.851Z,7.83
2019-04-20T07:32:48.536Z,7.73
2019-04-20T07:38:08.868Z,6.80
2019-04-20T07:48:01.415Z,6.93
2019-04-20T07:52:54.136Z,7.37
2019-04-20T07:58:07.645Z,7.43
2019-04-20T08:03:33.688Z,8.27
2019-04-20T08:08:28.243Z,7.37
2019-04-20T08:13:47.936Z,7.87
2019-04-20T08:23:51.907Z,7.63
2019-04-20T08:28:46.500Z,7.97
2019-04-20T08:34:31.388Z,7.67
2019-04-20T08:39:32.398Z,8.83
2019-04-20T08:49:34.811Z,8.07
2019-04-20T08:54:32.971Z,8.00
2019-04-20T08:59:21.059Z,7.80
2019-04-20T09:04:37.317Z,9.07
2019-04-20T09:09:49.146Z,8.97
2019-04-20T09:14:38.450Z,8.60
2019-04-20T09:19:52.854Z,8.87
2019-04-20T09:25:13.353Z,8.43
2019-04-20T09:30:14.970Z,8.37
2019-04-20T09:35:20.990Z,9.10
2019-04-20T09:40:21.854Z,9.00
2019-04-20T09:45:18.200Z,8.73
2019-04-20T09:50:34.855Z,9.03
2019-04-20T09:55:33.678Z,8.40
2019-04-20T10:00:46.052Z,9.07
2019-04-20T10:05:35.710Z,8.67
2019-04-20T10:10:42.631Z,10.20
2019-04-20T10:15:44.060Z,8.67
2019-04-20T10:20:47.598Z,8.73
2019-04-20T10:25:51.008Z,8.60
2019-04-20T10:30:54.723Z,8.50
2019-04-20T10:35:59.323Z,8.07
2019-04-20T10:41:11.700Z,8.57
2019-04-20T10:46:08.928Z,8.70
2019-04-20T10:51:13.854Z,9.77
2019-04-20T10:56:17.168Z,11.63
2019-04-20T11:01:21.934Z,9.00
2019-04-20T11:06:25.288Z,8.03
2019-04-20T11:11:31.730Z,8.53
2019-04-20T11:16:36.150Z,9.17
2019-04-20T11:21:40.834Z,8.63
2019-04-20T11:26:45.101Z,8.50
2019-04-20T11:31:53.992Z,10.00
2019-04-20T11:36:55.088Z,8.67
2019-04-20T11:42:01.556Z,7.87
2019-04-20T11:47:06.436Z,8.83
2019-04-20T11:52:09.849Z,8.03
2019-04-20T11:57:13.368Z,9.00
2019-04-20T12:02:42.217Z,8.53
2019-04-20T12:07:51.070Z,8.37
2019-04-20T12:12:55.764Z,7.13
2019-04-20T12:17:59.857Z,6.20
2019-04-20T12:23:04.338Z,6.63
2019-04-20T12:28:07.762Z,5.90
2019-04-20T12:33:11.498Z,5.83
2019-04-20T12:38:15.102Z,5.50
2019-04-20T12:43:19.123Z,5.70
2019-04-20T12:48:23.861Z,5.00
2019-04-20T12:53:28.612Z,6.10
2019-04-20T12:58:32.513Z,5.33
2019-04-20T13:03:37.071Z,5.40
2019-04-20T13:08:45.112Z,5.63
2019-04-20T13:13:50.749Z,5.83
2019-04-20T13:18:55.605Z,5.77
2019-04-20T13:23:59.138Z,5.30
2019-04-20T13:29:02.698Z,5.30
2019-04-20T13:34:07.509Z,5.50
2019-04-20T13:39:12.200Z,5.13
2019-04-20T13:44:15.793Z,5.43
2019-04-20T13:49:20.731Z,5.30
2019-04-20T13:54:27.615Z,5.40
2019-04-20T13:59:40.041Z,5.70
2019-04-20T14:04:46.221Z,6.20
2019-04-20T14:09:51.173Z,6.87
2019-04-20T14:14:55.224Z,5.40
2019-04-20T14:20:01.098Z,5.27
2019-04-20T14:25:04.940Z,5.63
2019-04-20T14:30:09.040Z,5.80
2019-04-20T14:35:12.855Z,6.33
2019-04-20T14:40:16.715Z,6.50
2019-04-20T14:45:24.782Z,5.80
2019-04-20T14:50:29.447Z,5.83
2019-04-20T14:55:33.505Z,5.80
2019-04-20T15:00:51.808Z,6.67
2019-04-20T15:05:56.195Z,6.53
2019-04-20T15:11:01.011Z,5.90
2019-04-20T15:16:04.717Z,5.07
2019-04-20T15:21:13.443Z,5.80
2019-04-20T15:26:18.422Z,7.70
2019-04-20T16:40:46.177Z,6.57
2019-04-20T16:45:50.662Z,6.10
2019-04-20T16:50:55.169Z,6.07
2019-04-20T16:56:01.061Z,8.67
2019-04-20T17:01:05.613Z,8.57
2019-04-20T17:06:09.003Z,7.33
2019-04-20T17:11:12.303Z,6.90
2019-04-20T17:16:15.858Z,7.20
2019-04-20T17:21:23.500Z,7.20
2019-04-20T17:26:27.261Z,6.13
2019-04-20T17:31:39.700Z,7.50
2019-04-20T17:36:44.456Z,7.03
2019-04-20T17:42:03.166Z,6.73
2019-04-20T17:47:09.627Z,7.33
2019-04-20T17:52:32.303Z,6.97
2019-04-20T17:57:11.071Z,7.63
2019-04-20T18:02:44.416Z,6.63
2019-04-20T18:07:52.225Z,6.43
2019-04-20T18:12:43.049Z,5.90
2019-04-20T18:18:10.263Z,7.00
2019-04-20T18:23:00.528Z,6.70
2019-04-20T18:28:15.167Z,6.43
2019-04-20T18:33:09.480Z,6.33
2019-04-20T18:38:15.203Z,7.77
2019-04-20T18:43:22.307Z,7.53
2019-04-20T18:48:43.609Z,6.83
2019-04-20T18:53:36.152Z,7.50
2019-04-20T18:58:33.673Z,6.97
2019-04-20T19:03:40.660Z,8.13
2019-04-20T19:08:46.972Z,8.00
2019-04-20T19:13:53.083Z,9.00
2019-04-20T19:19:13.463Z,9.93
2019-04-20T19:24:12.439Z,10.77
2019-04-20T19:29:22.142Z,12.50
2019-04-20T19:34:35.368Z,13.50
2019-04-20T19:39:39.950Z,15.37
2019-04-20T19:44:46.289Z,14.97
2019-04-20T19:49:44.365Z,15.50
2019-04-20T19:55:00.002Z,12.43
2019-04-20T19:59:48.375Z,13.67
2019-04-20T20:04:53.288Z,12.73
2019-04-20T20:09:58.413Z,12.50
2019-04-20T20:14:59.529Z,12.83
2019-04-20T20:20:25.128Z,12.47
2019-04-20T20:25:09.382Z,12.27
2019-04-20T20:30:22.785Z,11.80
2019-04-20T20:35:25.089Z,11.03
2019-04-20T20:40:29.862Z,10.80
2019-04-20T20:45:37.173Z,11.00
2019-04-20T20:50:55.660Z,10.17
2019-04-20T20:55:43.978Z,9.27
2019-04-20T21:00:55.665Z,8.60
2019-04-20T21:05:51.531Z,8.40
2019-04-20T21:10:56.542Z,8.40
2019-04-20T21:16:05.279Z,9.20
2019-04-20T21:21:17.682Z,9.40
2019-04-20T21:26:17.034Z,10.73
2019-04-20T21:31:21.417Z,10.27
2019-04-20T21:36:24.575Z,10.17
2019-04-20T21:41:27.886Z,10.40
2019-04-20T21:46:39.903Z,11.20
2019-04-20T21:51:44.572Z,11.17
2019-04-20T21:56:51.046Z,11.57
2019-04-20T22:01:55.059Z,11.83
2019-04-20T22:06:52.158Z,14.60
2019-04-20T22:11:56.094Z,13.03
2019-04-20T22:17:01.830Z,13.83
2019-04-20T22:22:16.100Z,12.27
2019-04-20T22:27:19.723Z,11.83
2019-04-20T22:32:17.249Z,11.93
2019-04-20T22:37:28.243Z,10.50
2019-04-20T22:42:31.315Z,10.77
2019-04-20T22:47:35.415Z,10.43
2019-04-20T22:52:51.621Z,11.03
2019-04-20T22:57:53.408Z,10.53
2019-04-20T23:02:51.128Z,11.00
2019-04-20T23:07:54.797Z,11.23
2019-04-20T23:12:59.667Z,9.80
2019-04-20T23:18:04.287Z,10.30
2019-04-20T23:23:12.404Z,10.07
2019-04-20T23:28:16.382Z,10.53
2019-04-20T23:33:18.095Z,10.90
2019-04-20T23:38:24.571Z,12.40
2019-04-20T23:43:33.642Z,12.27
2019-04-20T23:48:50.192Z,11.83
2019-04-20T23:54:01.997Z,11.13
2019-04-20T23:58:59.812Z,11.13
